sensor_id;sensor_type;location;lat;lon;timestamp;P1;durP1;ratioP1;P2;durP2;ratioP2
68866;SDS011;56451;44.804;20.476;2023-12-20T00:02:01;22.92;;;12.55;;
68866;SDS011;56451;44.804;20.476;2023-12-20T00:04:28;24.35;;;13.55;;
68866;SDS011;56451;44.804;20.476;2023-12-20T00:06:54;20.50;;;13.00;;
68866;SDS011;56451;44.804;20.476;2023-12-20T00:09:20;24.87;;;13.30;;
68866;SDS011;56451;44.804;20.476;2023-12-20T00:12:06;26.55;;;13.63;;
68866;SDS011;56451;44.804;20.476;2023-12-20T00:14:53;24.58;;;13.95;;
68866;SDS011;56451;44.804;20.476;2023-12-20T00:17:40;24.85;;;13.85;;
68866;SDS011;56451;44.804;20.476;2023-12-20T00:20:26;22.70;;;13.00;;
68866;SDS011;56451;44.804;20.476;2023-12-20T00:23:13;21.20;;;12.37;;
68866;SDS011;56451;44.804;20.476;2023-12-20T00:26:00;24.60;;;12.73;;
68866;SDS011;56451;44.804;20.476;2023-12-20T00:28:26;24.75;;;13.75;;
68866;SDS011;56451;44.804;20.476;2023-12-20T00:30:53;25.23;;;13.77;;
68866;SDS011;56451;44.804;20.476;2023-12-20T00:33:19;27.00;;;14.25;;
68866;SDS011;56451;44.804;20.476;2023-12-20T00:36:05;26.17;;;13.83;;
68866;SDS011;56451;44.804;20.476;2023-12-20T00:38:52;28.65;;;14.15;;
68866;SDS011;56451;44.804;20.476;2023-12-20T00:41:38;24.90;;;14.82;;
68866;SDS011;56451;44.804;20.476;2023-12-20T00:44:24;25.90;;;14.40;;
68866;SDS011;56451;44.804;20.476;2023-12-20T00:47:10;28.38;;;14.40;;
68866;SDS011;56451;44.804;20.476;2023-12-20T00:49:57;30.20;;;14.63;;
68866;SDS011;56451;44.804;20.476;2023-12-20T00:52:44;37.67;;;14.80;;
68866;SDS011;56451;44.804;20.476;2023-12-20T00:55:29;30.65;;;13.88;;
68866;SDS011;56451;44.804;20.476;2023-12-20T00:58:17;34.15;;;14.90;;
68866;SDS011;56451;44.804;20.476;2023-12-20T01:01:03;23.10;;;13.70;;
68866;SDS011;56451;44.804;20.476;2023-12-20T01:03:34;28.40;;;13.60;;
68866;SDS011;56451;44.804;20.476;2023-12-20T01:06:01;40.45;;;16.38;;
68866;SDS011;56451;44.804;20.476;2023-12-20T01:08:27;42.92;;;18.40;;
68866;SDS011;56451;44.804;20.476;2023-12-20T01:10:53;36.25;;;15.75;;
68866;SDS011;56451;44.804;20.476;2023-12-20T01:13:19;34.45;;;13.85;;
68866;SDS011;56451;44.804;20.476;2023-12-20T01:15:46;31.03;;;13.77;;
68866;SDS011;56451;44.804;20.476;2023-12-20T01:18:13;26.00;;;11.50;;
68866;SDS011;56451;44.804;20.476;2023-12-20T01:21:01;23.40;;;11.98;;
68866;SDS011;56451;44.804;20.476;2023-12-20T01:23:49;23.33;;;11.68;;
68866;SDS011;56451;44.804;20.476;2023-12-20T01:26:35;22.50;;;10.98;;
68866;SDS011;56451;44.804;20.476;2023-12-20T01:29:21;22.03;;;11.10;;
68866;SDS011;56451;44.804;20.476;2023-12-20T01:32:07;21.52;;;11.15;;
68866;SDS011;56451;44.804;20.476;2023-12-20T01:34:53;27.52;;;11.88;;
68866;SDS011;56451;44.804;20.476;2023-12-20T01:37:40;24.10;;;11.50;;
68866;SDS011;56451;44.804;20.476;2023-12-20T01:40:26;20.27;;;11.68;;
68866;SDS011;56451;44.804;20.476;2023-12-20T01:43:12;19.77;;;11.20;;
68866;SDS011;56451;44.804;20.476;2023-12-20T01:45:58;18.75;;;11.88;;
68866;SDS011;56451;44.804;20.476;2023-12-20T01:48:45;19.70;;;12.45;;
68866;SDS011;56451;44.804;20.476;2023-12-20T01:51:32;24.42;;;13.23;;
68866;SDS011;56451;44.804;20.476;2023-12-20T01:54:20;25.10;;;15.02;;
68866;SDS011;56451;44.804;20.476;2023-12-20T01:57:10;25.10;;;16.03;;
68866;SDS011;56451;44.804;20.476;2023-12-20T01:59:56;36.25;;;20.17;;
68866;SDS011;56451;44.804;20.476;2023-12-20T02:02:43;38.75;;;22.38;;
68866;SDS011;56451;44.804;20.476;2023-12-20T02:05:31;48.13;;;27.38;;
68866;SDS011;56451;44.804;20.476;2023-12-20T02:08:19;77.47;;;42.38;;
68866;SDS011;56451;44.804;20.476;2023-12-20T02:10:45;74.83;;;42.10;;
68866;SDS011;56451;44.804;20.476;2023-12-20T02:13:12;82.57;;;45.53;;
68866;SDS011;56451;44.804;20.476;2023-12-20T02:15:38;84.22;;;46.60;;
68866;SDS011;56451;44.804;20.476;2023-12-20T02:18:04;84.70;;;47.88;;
68866;SDS011;56451;44.804;20.476;2023-12-20T02:20:31;82.00;;;43.25;;
68866;SDS011;56451;44.804;20.476;2023-12-20T02:22:57;75.87;;;44.00;;
68866;SDS011;56451;44.804;20.476;2023-12-20T02:25:43;83.63;;;45.33;;
68866;SDS011;56451;44.804;20.476;2023-12-20T02:28:30;86.50;;;49.72;;
68866;SDS011;56451;44.804;20.476;2023-12-20T02:31:20;92.90;;;50.47;;
68866;SDS011;56451;44.804;20.476;2023-12-20T02:34:07;97.38;;;52.70;;
68866;SDS011;56451;44.804;20.476;2023-12-20T02:36:53;103.40;;;55.17;;
68866;SDS011;56451;44.804;20.476;2023-12-20T02:39:40;104.40;;;53.38;;
68866;SDS011;56451;44.804;20.476;2023-12-20T02:42:26;106.00;;;54.08;;
68866;SDS011;56451;44.804;20.476;2023-12-20T02:44:56;101.40;;;53.92;;
68866;SDS011;56451;44.804;20.476;2023-12-20T02:47:22;105.85;;;55.03;;
68866;SDS011;56451;44.804;20.476;2023-12-20T02:49:49;100.40;;;54.67;;
68866;SDS011;56451;44.804;20.476;2023-12-20T02:52:35;100.75;;;53.80;;
68866;SDS011;56451;44.804;20.476;2023-12-20T02:55:17;96.70;;;52.53;;
68866;SDS011;56451;44.804;20.476;2023-12-20T02:57:43;100.95;;;53.28;;
68866;SDS011;56451;44.804;20.476;2023-12-20T03:00:09;93.97;;;51.78;;
68866;SDS011;56451;44.804;20.476;2023-12-20T03:02:36;95.05;;;52.08;;
68866;SDS011;56451;44.804;20.476;2023-12-20T03:05:22;94.55;;;51.20;;
68866;SDS011;56451;44.804;20.476;2023-12-20T03:07:49;98.72;;;52.35;;
68866;SDS011;56451;44.804;20.476;2023-12-20T03:10:35;98.43;;;52.03;;
68866;SDS011;56451;44.804;20.476;2023-12-20T03:13:22;93.70;;;52.35;;
68866;SDS011;56451;44.804;20.476;2023-12-20T03:15:48;101.45;;;52.53;;
68866;SDS011;56451;44.804;20.476;2023-12-20T03:18:14;103.45;;;52.83;;
68866;SDS011;56451;44.804;20.476;2023-12-20T03:21:01;103.32;;;53.85;;
68866;SDS011;56451;44.804;20.476;2023-12-20T03:23:27;103.20;;;51.90;;
68866;SDS011;56451;44.804;20.476;2023-12-20T03:26:13;100.57;;;53.35;;
68866;SDS011;56451;44.804;20.476;2023-12-20T03:28:59;98.85;;;52.47;;
68866;SDS011;56451;44.804;20.476;2023-12-20T03:31:45;174.23;;;64.20;;
68866;SDS011;56451;44.804;20.476;2023-12-20T03:34:31;107.45;;;53.63;;
68866;SDS011;56451;44.804;20.476;2023-12-20T03:37:18;118.20;;;56.28;;
68866;SDS011;56451;44.804;20.476;2023-12-20T03:39:44;116.78;;;55.97;;
68866;SDS011;56451;44.804;20.476;2023-12-20T03:42:30;98.07;;;50.38;;
68866;SDS011;56451;44.804;20.476;2023-12-20T03:45:17;109.72;;;52.75;;
68866;SDS011;56451;44.804;20.476;2023-12-20T03:47:44;99.95;;;51.38;;
68866;SDS011;56451;44.804;20.476;2023-12-20T03:50:31;104.43;;;51.15;;
68866;SDS011;56451;44.804;20.476;2023-12-20T03:53:03;94.07;;;50.85;;
68866;SDS011;56451;44.804;20.476;2023-12-20T03:55:29;101.22;;;52.35;;
68866;SDS011;56451;44.804;20.476;2023-12-20T03:57:56;99.70;;;53.47;;
68866;SDS011;56451;44.804;20.476;2023-12-20T04:00:23;96.38;;;52.35;;
68866;SDS011;56451;44.804;20.476;2023-12-20T04:02:49;104.70;;;54.17;;
68866;SDS011;56451;44.804;20.476;2023-12-20T04:05:15;105.70;;;54.63;;
68866;SDS011;56451;44.804;20.476;2023-12-20T04:07:41;101.38;;;54.00;;
68866;SDS011;56451;44.804;20.476;2023-12-20T04:10:29;100.47;;;54.95;;
68866;SDS011;56451;44.804;20.476;2023-12-20T04:13:17;100.82;;;52.03;;
68866;SDS011;56451;44.804;20.476;2023-12-20T04:16:03;92.93;;;50.78;;
68866;SDS011;56451;44.804;20.476;2023-12-20T04:18:29;101.07;;;53.07;;
68866;SDS011;56451;44.804;20.476;2023-12-20T04:21:18;103.90;;;53.13;;
68866;SDS011;56451;44.804;20.476;2023-12-20T04:23:47;97.68;;;53.05;;
68866;SDS011;56451;44.804;20.476;2023-12-20T04:26:33;101.38;;;52.13;;
68866;SDS011;56451;44.804;20.476;2023-12-20T04:29:23;91.45;;;49.33;;
68866;SDS011;56451;44.804;20.476;2023-12-20T04:32:10;96.57;;;50.90;;
68866;SDS011;56451;44.804;20.476;2023-12-20T04:34:58;94.10;;;51.70;;
68866;SDS011;56451;44.804;20.476;2023-12-20T04:37:44;100.00;;;51.95;;
68866;SDS011;56451;44.804;20.476;2023-12-20T04:40:31;93.53;;;50.70;;
68866;SDS011;56451;44.804;20.476;2023-12-20T04:42:58;95.00;;;50.10;;
68866;SDS011;56451;44.804;20.476;2023-12-20T04:45:24;93.10;;;51.67;;
68866;SDS011;56451;44.804;20.476;2023-12-20T04:47:56;92.38;;;50.67;;
68866;SDS011;56451;44.804;20.476;2023-12-20T04:50:25;93.45;;;49.78;;
68866;SDS011;56451;44.804;20.476;2023-12-20T04:52:53;88.07;;;50.70;;
68866;SDS011;56451;44.804;20.476;2023-12-20T04:55:19;91.90;;;51.95;;
68866;SDS011;56451;44.804;20.476;2023-12-20T04:57:45;92.97;;;51.97;;
68866;SDS011;56451;44.804;20.476;2023-12-20T05:00:11;99.00;;;51.95;;
68866;SDS011;56451;44.804;20.476;2023-12-20T05:02:39;93.72;;;53.35;;
68866;SDS011;56451;44.804;20.476;2023-12-20T05:05:05;99.22;;;52.92;;
68866;SDS011;56451;44.804;20.476;2023-12-20T05:07:32;98.00;;;53.47;;
68866;SDS011;56451;44.804;20.476;2023-12-20T05:09:58;104.72;;;52.63;;
68866;SDS011;56451;44.804;20.476;2023-12-20T05:12:45;96.18;;;51.28;;
68866;SDS011;56451;44.804;20.476;2023-12-20T05:15:31;97.13;;;51.85;;
68866;SDS011;56451;44.804;20.476;2023-12-20T05:17:58;94.70;;;52.97;;
68866;SDS011;56451;44.804;20.476;2023-12-20T05:20:24;95.73;;;50.57;;
68866;SDS011;56451;44.804;20.476;2023-12-20T05:22:50;93.90;;;52.13;;
68866;SDS011;56451;44.804;20.476;2023-12-20T05:25:16;112.75;;;56.03;;
68866;SDS011;56451;44.804;20.476;2023-12-20T05:27:42;87.80;;;48.55;;
68866;SDS011;56451;44.804;20.476;2023-12-20T05:30:28;88.75;;;48.85;;
68866;SDS011;56451;44.804;20.476;2023-12-20T05:32:54;90.77;;;48.60;;
68866;SDS011;56451;44.804;20.476;2023-12-20T05:35:41;85.13;;;48.80;;
68866;SDS011;56451;44.804;20.476;2023-12-20T05:38:07;83.82;;;47.42;;
68866;SDS011;56451;44.804;20.476;2023-12-20T05:40:34;77.75;;;43.78;;
68866;SDS011;56451;44.804;20.476;2023-12-20T05:43:00;68.47;;;40.10;;
68866;SDS011;56451;44.804;20.476;2023-12-20T05:45:46;60.28;;;33.35;;
68866;SDS011;56451;44.804;20.476;2023-12-20T05:48:38;58.30;;;31.27;;
68866;SDS011;56451;44.804;20.476;2023-12-20T05:51:04;57.38;;;32.78;;
68866;SDS011;56451;44.804;20.476;2023-12-20T05:53:31;54.97;;;32.00;;
68866;SDS011;56451;44.804;20.476;2023-12-20T05:55:58;53.77;;;31.50;;
68866;SDS011;56451;44.804;20.476;2023-12-20T05:58:25;62.22;;;33.17;;
68866;SDS011;56451;44.804;20.476;2023-12-20T06:00:51;56.88;;;31.17;;
68866;SDS011;56451;44.804;20.476;2023-12-20T06:03:41;58.92;;;32.20;;
68866;SDS011;56451;44.804;20.476;2023-12-20T06:06:08;131.73;;;54.92;;
68866;SDS011;56451;44.804;20.476;2023-12-20T06:08:55;86.90;;;43.78;;
68866;SDS011;56451;44.804;20.476;2023-12-20T06:11:42;71.28;;;36.00;;
68866;SDS011;56451;44.804;20.476;2023-12-20T06:14:29;63.03;;;34.88;;
68866;SDS011;56451;44.804;20.476;2023-12-20T06:17:18;70.57;;;39.28;;
68866;SDS011;56451;44.804;20.476;2023-12-20T06:20:08;68.10;;;35.00;;
68866;SDS011;56451;44.804;20.476;2023-12-20T06:22:56;69.15;;;39.22;;
68866;SDS011;56451;44.804;20.476;2023-12-20T06:25:44;80.95;;;42.25;;
68866;SDS011;56451;44.804;20.476;2023-12-20T06:28:13;78.60;;;43.75;;
68866;SDS011;56451;44.804;20.476;2023-12-20T06:30:40;79.63;;;43.25;;
68866;SDS011;56451;44.804;20.476;2023-12-20T06:33:26;90.53;;;45.88;;
68866;SDS011;56451;44.804;20.476;2023-12-20T06:35:55;86.72;;;44.58;;
68866;SDS011;56451;44.804;20.476;2023-12-20T06:38:24;87.10;;;45.25;;
68866;SDS011;56451;44.804;20.476;2023-12-20T06:41:12;86.70;;;46.60;;
68866;SDS011;56451;44.804;20.476;2023-12-20T06:43:44;85.68;;;43.17;;
68866;SDS011;56451;44.804;20.476;2023-12-20T06:46:36;83.13;;;43.53;;
68866;SDS011;56451;44.804;20.476;2023-12-20T06:49:02;84.25;;;45.65;;
68866;SDS011;56451;44.804;20.476;2023-12-20T06:51:29;79.80;;;44.75;;
68866;SDS011;56451;44.804;20.476;2023-12-20T06:54:15;81.88;;;44.55;;
68866;SDS011;56451;44.804;20.476;2023-12-20T06:56:41;82.53;;;42.67;;
68866;SDS011;56451;44.804;20.476;2023-12-20T06:59:27;80.78;;;43.92;;
68866;SDS011;56451;44.804;20.476;2023-12-20T07:01:54;78.90;;;44.08;;
68866;SDS011;56451;44.804;20.476;2023-12-20T07:04:21;83.43;;;44.00;;
68866;SDS011;56451;44.804;20.476;2023-12-20T07:06:48;80.43;;;44.63;;
68866;SDS011;56451;44.804;20.476;2023-12-20T07:09:17;82.28;;;44.38;;
68866;SDS011;56451;44.804;20.476;2023-12-20T07:12:05;85.25;;;45.78;;
68866;SDS011;56451;44.804;20.476;2023-12-20T07:14:41;85.82;;;44.80;;
68866;SDS011;56451;44.804;20.476;2023-12-20T07:17:24;82.43;;;46.40;;
68866;SDS011;56451;44.804;20.476;2023-12-20T07:19:51;80.57;;;42.47;;
68866;SDS011;56451;44.804;20.476;2023-12-20T07:22:17;81.50;;;42.08;;
68866;SDS011;56451;44.804;20.476;2023-12-20T07:25:00;77.07;;;41.80;;
68866;SDS011;56451;44.804;20.476;2023-12-20T07:27:26;76.85;;;41.42;;
68866;SDS011;56451;44.804;20.476;2023-12-20T07:29:52;80.45;;;42.33;;
68866;SDS011;56451;44.804;20.476;2023-12-20T07:32:38;70.05;;;39.72;;
68866;SDS011;56451;44.804;20.476;2023-12-20T07:35:25;74.88;;;40.22;;
68866;SDS011;56451;44.804;20.476;2023-12-20T07:38:11;74.07;;;41.33;;
68866;SDS011;56451;44.804;20.476;2023-12-20T07:40:38;84.32;;;43.97;;
68866;SDS011;56451;44.804;20.476;2023-12-20T07:43:31;86.95;;;46.88;;
68866;SDS011;56451;44.804;20.476;2023-12-20T07:46:04;91.70;;;48.55;;
68866;SDS011;56451;44.804;20.476;2023-12-20T07:48:54;84.47;;;46.28;;
68866;SDS011;56451;44.804;20.476;2023-12-20T07:51:41;89.80;;;49.85;;
68866;SDS011;56451;44.804;20.476;2023-12-20T07:54:27;92.53;;;49.65;;
68866;SDS011;56451;44.804;20.476;2023-12-20T07:56:55;92.55;;;49.30;;
68866;SDS011;56451;44.804;20.476;2023-12-20T07:59:42;93.22;;;50.05;;
68866;SDS011;56451;44.804;20.476;2023-12-20T08:02:31;90.68;;;51.58;;
68866;SDS011;56451;44.804;20.476;2023-12-20T08:05:22;87.85;;;48.45;;
68866;SDS011;56451;44.804;20.476;2023-12-20T08:08:08;96.38;;;52.65;;
68866;SDS011;56451;44.804;20.476;2023-12-20T08:10:35;86.72;;;47.60;;
68866;SDS011;56451;44.804;20.476;2023-12-20T08:13:21;93.53;;;51.50;;
68866;SDS011;56451;44.804;20.476;2023-12-20T08:16:07;98.28;;;50.55;;
68866;SDS011;56451;44.804;20.476;2023-12-20T08:18:34;90.50;;;50.55;;
68866;SDS011;56451;44.804;20.476;2023-12-20T08:21:21;84.70;;;46.85;;
68866;SDS011;56451;44.804;20.476;2023-12-20T08:23:48;98.60;;;48.95;;
68866;SDS011;56451;44.804;20.476;2023-12-20T08:26:34;88.85;;;48.85;;
68866;SDS011;56451;44.804;20.476;2023-12-20T08:29:21;94.97;;;49.55;;
68866;SDS011;56451;44.804;20.476;2023-12-20T08:32:07;85.00;;;48.22;;
68866;SDS011;56451;44.804;20.476;2023-12-20T08:34:35;84.72;;;45.65;;
68866;SDS011;56451;44.804;20.476;2023-12-20T08:37:01;65.90;;;36.95;;
68866;SDS011;56451;44.804;20.476;2023-12-20T08:39:27;68.70;;;36.75;;
68866;SDS011;56451;44.804;20.476;2023-12-20T08:41:56;68.05;;;36.80;;
68866;SDS011;56451;44.804;20.476;2023-12-20T08:44:21;66.90;;;36.90;;
68866;SDS011;56451;44.804;20.476;2023-12-20T08:46:48;70.70;;;36.80;;
68866;SDS011;56451;44.804;20.476;2023-12-20T08:49:14;59.88;;;31.48;;
68866;SDS011;56451;44.804;20.476;2023-12-20T08:51:41;53.10;;;29.08;;
68866;SDS011;56451;44.804;20.476;2023-12-20T08:54:07;54.28;;;30.52;;
68866;SDS011;56451;44.804;20.476;2023-12-20T08:56:54;55.37;;;30.00;;
68866;SDS011;56451;44.804;20.476;2023-12-20T08:59:40;60.38;;;32.95;;
68866;SDS011;56451;44.804;20.476;2023-12-20T09:02:26;66.43;;;36.70;;
68866;SDS011;56451;44.804;20.476;2023-12-20T09:04:52;75.00;;;41.03;;
68866;SDS011;56451;44.804;20.476;2023-12-20T09:07:22;81.13;;;43.80;;
68866;SDS011;56451;44.804;20.476;2023-12-20T09:09:49;78.53;;;43.70;;
68866;SDS011;56451;44.804;20.476;2023-12-20T09:12:36;81.47;;;44.45;;
68866;SDS011;56451;44.804;20.476;2023-12-20T09:15:05;82.25;;;49.78;;
68866;SDS011;56451;44.804;20.476;2023-12-20T09:17:31;95.57;;;50.15;;
68866;SDS011;56451;44.804;20.476;2023-12-20T09:19:58;89.35;;;46.38;;
68866;SDS011;56451;44.804;20.476;2023-12-20T09:22:25;76.17;;;42.17;;
68866;SDS011;56451;44.804;20.476;2023-12-20T09:24:51;70.05;;;39.58;;
68866;SDS011;56451;44.804;20.476;2023-12-20T09:27:35;71.65;;;40.10;;
68866;SDS011;56451;44.804;20.476;2023-12-20T09:30:02;72.30;;;38.60;;
68866;SDS011;56451;44.804;20.476;2023-12-20T09:32:49;64.47;;;37.20;;
68866;SDS011;56451;44.804;20.476;2023-12-20T09:35:15;68.67;;;38.33;;
68866;SDS011;56451;44.804;20.476;2023-12-20T09:37:42;67.82;;;38.28;;
68866;SDS011;56451;44.804;20.476;2023-12-20T09:40:10;70.20;;;39.55;;
68866;SDS011;56451;44.804;20.476;2023-12-20T09:42:55;75.65;;;38.85;;
68866;SDS011;56451;44.804;20.476;2023-12-20T09:45:56;68.05;;;38.60;;
68866;SDS011;56451;44.804;20.476;2023-12-20T09:48:27;65.47;;;37.53;;
68866;SDS011;56451;44.804;20.476;2023-12-20T09:51:15;71.20;;;39.13;;
68866;SDS011;56451;44.804;20.476;2023-12-20T09:54:03;73.28;;;40.63;;
68866;SDS011;56451;44.804;20.476;2023-12-20T09:56:30;64.07;;;35.75;;
68866;SDS011;56451;44.804;20.476;2023-12-20T09:59:17;71.38;;;38.00;;
68866;SDS011;56451;44.804;20.476;2023-12-20T10:01:43;62.73;;;35.20;;
68866;SDS011;56451;44.804;20.476;2023-12-20T10:04:10;66.30;;;37.50;;
68866;SDS011;56451;44.804;20.476;2023-12-20T10:06:44;70.32;;;37.63;;
68866;SDS011;56451;44.804;20.476;2023-12-20T10:09:11;64.32;;;36.20;;
68866;SDS011;56451;44.804;20.476;2023-12-20T10:11:38;70.85;;;38.65;;
68866;SDS011;56451;44.804;20.476;2023-12-20T10:14:08;71.33;;;38.27;;
68866;SDS011;56451;44.804;20.476;2023-12-20T10:17:01;70.43;;;38.17;;
68866;SDS011;56451;44.804;20.476;2023-12-20T10:19:32;74.20;;;39.92;;
68866;SDS011;56451;44.804;20.476;2023-12-20T10:22:00;71.65;;;40.80;;
68866;SDS011;56451;44.804;20.476;2023-12-20T10:24:49;72.32;;;41.33;;
68866;SDS011;56451;44.804;20.476;2023-12-20T10:27:15;77.40;;;41.47;;
68866;SDS011;56451;44.804;20.476;2023-12-20T10:29:44;77.95;;;43.55;;
68866;SDS011;56451;44.804;20.476;2023-12-20T10:32:31;79.95;;;44.03;;
68866;SDS011;56451;44.804;20.476;2023-12-20T10:35:00;88.75;;;46.35;;
68866;SDS011;56451;44.804;20.476;2023-12-20T10:37:26;88.50;;;46.33;;
68866;SDS011;56451;44.804;20.476;2023-12-20T10:39:53;89.13;;;50.47;;
68866;SDS011;56451;44.804;20.476;2023-12-20T10:42:26;94.32;;;50.50;;
68866;SDS011;56451;44.804;20.476;2023-12-20T10:44:52;94.68;;;52.35;;
68866;SDS011;56451;44.804;20.476;2023-12-20T10:47:22;105.47;;;52.38;;
68866;SDS011;56451;44.804;20.476;2023-12-20T10:49:50;104.70;;;53.60;;
68866;SDS011;56451;44.804;20.476;2023-12-20T10:52:19;103.83;;;53.17;;
68866;SDS011;56451;44.804;20.476;2023-12-20T10:54:48;96.28;;;53.53;;
68866;SDS011;56451;44.804;20.476;2023-12-20T10:57:15;102.30;;;53.67;;
68866;SDS011;56451;44.804;20.476;2023-12-20T10:59:43;96.18;;;52.53;;
68866;SDS011;56451;44.804;20.476;2023-12-20T11:02:36;99.28;;;54.35;;
68866;SDS011;56451;44.804;20.476;2023-12-20T11:05:06;100.77;;;51.60;;
68866;SDS011;56451;44.804;20.476;2023-12-20T11:07:47;99.68;;;52.40;;
68866;SDS011;56451;44.804;20.476;2023-12-20T11:10:26;92.10;;;51.35;;
68866;SDS011;56451;44.804;20.476;2023-12-20T11:13:38;101.85;;;49.65;;
68866;SDS011;56451;44.804;20.476;2023-12-20T11:16:33;106.55;;;52.90;;
68866;SDS011;56451;44.804;20.476;2023-12-20T11:19:05;95.30;;;51.47;;
68866;SDS011;56451;44.804;20.476;2023-12-20T11:21:31;99.13;;;50.65;;
68866;SDS011;56451;44.804;20.476;2023-12-20T11:23:57;85.53;;;49.00;;
68866;SDS011;56451;44.804;20.476;2023-12-20T11:26:27;90.00;;;49.17;;
68866;SDS011;56451;44.804;20.476;2023-12-20T11:29:17;89.68;;;48.28;;
68866;SDS011;56451;44.804;20.476;2023-12-20T11:31:56;83.60;;;46.97;;
68866;SDS011;56451;44.804;20.476;2023-12-20T11:34:22;83.50;;;45.60;;
68866;SDS011;56451;44.804;20.476;2023-12-20T11:36:57;80.13;;;46.10;;
68866;SDS011;56451;44.804;20.476;2023-12-20T11:39:25;75.10;;;42.97;;
68866;SDS011;56451;44.804;20.476;2023-12-20T11:41:54;76.72;;;43.72;;
68866;SDS011;56451;44.804;20.476;2023-12-20T11:44:24;71.03;;;39.23;;
68866;SDS011;56451;44.804;20.476;2023-12-20T11:46:51;76.00;;;43.83;;
68866;SDS011;56451;44.804;20.476;2023-12-20T11:49:17;82.82;;;45.63;;
68866;SDS011;56451;44.804;20.476;2023-12-20T11:51:43;88.20;;;46.50;;
68866;SDS011;56451;44.804;20.476;2023-12-20T11:54:10;88.18;;;47.72;;
68866;SDS011;56451;44.804;20.476;2023-12-20T11:56:37;83.30;;;47.47;;
68866;SDS011;56451;44.804;20.476;2023-12-20T11:59:03;89.55;;;47.33;;
68866;SDS011;56451;44.804;20.476;2023-12-20T12:01:31;90.47;;;48.25;;
68866;SDS011;56451;44.804;20.476;2023-12-20T12:04:03;89.43;;;48.90;;
68866;SDS011;56451;44.804;20.476;2023-12-20T12:06:30;83.70;;;47.72;;
68866;SDS011;56451;44.804;20.476;2023-12-20T12:08:56;86.63;;;48.50;;
68866;SDS011;56451;44.804;20.476;2023-12-20T12:11:23;89.03;;;49.78;;
68866;SDS011;56451;44.804;20.476;2023-12-20T12:13:49;93.15;;;51.90;;
68866;SDS011;56451;44.804;20.476;2023-12-20T12:16:21;94.65;;;52.58;;
68866;SDS011;56451;44.804;20.476;2023-12-20T12:18:55;89.40;;;51.72;;
68866;SDS011;56451;44.804;20.476;2023-12-20T12:21:46;87.60;;;50.07;;
68866;SDS011;56451;44.804;20.476;2023-12-20T12:24:32;93.47;;;50.33;;
68866;SDS011;56451;44.804;20.476;2023-12-20T12:27:18;94.85;;;52.25;;
68866;SDS011;56451;44.804;20.476;2023-12-20T12:30:04;94.90;;;50.35;;
68866;SDS011;56451;44.804;20.476;2023-12-20T12:33:11;91.25;;;52.00;;
68866;SDS011;56451;44.804;20.476;2023-12-20T12:35:57;97.37;;;51.73;;
68866;SDS011;56451;44.804;20.476;2023-12-20T12:38:43;90.60;;;51.80;;
68866;SDS011;56451;44.804;20.476;2023-12-20T12:41:29;97.28;;;52.00;;
68866;SDS011;56451;44.804;20.476;2023-12-20T12:44:16;94.25;;;51.22;;
68866;SDS011;56451;44.804;20.476;2023-12-20T12:47:02;91.50;;;51.28;;
68866;SDS011;56451;44.804;20.476;2023-12-20T12:49:29;88.67;;;49.77;;
68866;SDS011;56451;44.804;20.476;2023-12-20T12:52:15;86.28;;;49.55;;
68866;SDS011;56451;44.804;20.476;2023-12-20T12:55:01;90.93;;;50.85;;
68866;SDS011;56451;44.804;20.476;2023-12-20T12:57:47;91.05;;;52.25;;
68866;SDS011;56451;44.804;20.476;2023-12-20T13:00:14;95.30;;;52.53;;
68866;SDS011;56451;44.804;20.476;2023-12-20T13:03:01;100.87;;;53.87;;
68866;SDS011;56451;44.804;20.476;2023-12-20T13:05:27;87.72;;;52.25;;
68866;SDS011;56451;44.804;20.476;2023-12-20T13:07:53;96.65;;;51.88;;
68866;SDS011;56451;44.804;20.476;2023-12-20T13:10:19;97.97;;;52.80;;
68866;SDS011;56451;44.804;20.476;2023-12-20T13:12:46;105.57;;;55.35;;
68866;SDS011;56451;44.804;20.476;2023-12-20T13:15:12;103.38;;;55.13;;
68866;SDS011;56451;44.804;20.476;2023-12-20T13:17:38;110.25;;;55.45;;
68866;SDS011;56451;44.804;20.476;2023-12-20T13:20:05;107.70;;;55.70;;
68866;SDS011;56451;44.804;20.476;2023-12-20T13:22:32;100.57;;;56.13;;
68866;SDS011;56451;44.804;20.476;2023-12-20T13:24:58;107.57;;;57.97;;
68866;SDS011;56451;44.804;20.476;2023-12-20T13:27:25;103.18;;;58.22;;
68866;SDS011;56451;44.804;20.476;2023-12-20T13:30:03;105.18;;;56.55;;
68866;SDS011;56451;44.804;20.476;2023-12-20T13:32:29;95.85;;;54.20;;
68866;SDS011;56451;44.804;20.476;2023-12-20T13:34:56;96.93;;;53.58;;
68866;SDS011;56451;44.804;20.476;2023-12-20T13:37:22;94.35;;;53.15;;
68866;SDS011;56451;44.804;20.476;2023-12-20T13:39:48;96.78;;;53.85;;
68866;SDS011;56451;44.804;20.476;2023-12-20T13:42:14;93.45;;;52.05;;
68866;SDS011;56451;44.804;20.476;2023-12-20T13:44:40;104.25;;;55.88;;
68866;SDS011;56451;44.804;20.476;2023-12-20T13:47:07;96.18;;;52.75;;
68866;SDS011;56451;44.804;20.476;2023-12-20T13:49:33;96.38;;;53.55;;
68866;SDS011;56451;44.804;20.476;2023-12-20T13:52:19;92.78;;;51.90;;
68866;SDS011;56451;44.804;20.476;2023-12-20T13:54:46;91.55;;;51.97;;
68866;SDS011;56451;44.804;20.476;2023-12-20T13:57:16;100.00;;;53.90;;
68866;SDS011;56451;44.804;20.476;2023-12-20T13:59:42;97.47;;;53.20;;
68866;SDS011;56451;44.804;20.476;2023-12-20T14:02:11;93.47;;;54.15;;
68866;SDS011;56451;44.804;20.476;2023-12-20T14:04:38;96.43;;;52.20;;
68866;SDS011;56451;44.804;20.476;2023-12-20T14:07:06;99.38;;;54.25;;
68866;SDS011;56451;44.804;20.476;2023-12-20T14:09:33;96.78;;;55.65;;
68866;SDS011;56451;44.804;20.476;2023-12-20T14:11:59;102.30;;;56.28;;
68866;SDS011;56451;44.804;20.476;2023-12-20T14:14:30;113.93;;;58.40;;
68866;SDS011;56451;44.804;20.476;2023-12-20T14:17:04;103.38;;;58.47;;
68866;SDS011;56451;44.804;20.476;2023-12-20T14:19:33;104.30;;;58.25;;
68866;SDS011;56451;44.804;20.476;2023-12-20T14:22:01;107.25;;;57.67;;
68866;SDS011;56451;44.804;20.476;2023-12-20T14:24:27;118.28;;;58.72;;
68866;SDS011;56451;44.804;20.476;2023-12-20T14:26:54;108.37;;;57.90;;
68866;SDS011;56451;44.804;20.476;2023-12-20T14:29:21;103.95;;;57.55;;
68866;SDS011;56451;44.804;20.476;2023-12-20T14:31:47;112.50;;;59.42;;
68866;SDS011;56451;44.804;20.476;2023-12-20T14:34:15;103.78;;;58.08;;
68866;SDS011;56451;44.804;20.476;2023-12-20T14:37:07;100.90;;;59.17;;
68866;SDS011;56451;44.804;20.476;2023-12-20T14:39:54;116.87;;;60.50;;
68866;SDS011;56451;44.804;20.476;2023-12-20T14:42:41;113.95;;;60.53;;
68866;SDS011;56451;44.804;20.476;2023-12-20T14:45:28;122.22;;;61.63;;
68866;SDS011;56451;44.804;20.476;2023-12-20T14:48:14;116.55;;;59.60;;
68866;SDS011;56451;44.804;20.476;2023-12-20T14:51:01;112.05;;;60.97;;
68866;SDS011;56451;44.804;20.476;2023-12-20T14:53:27;118.83;;;62.47;;
68866;SDS011;56451;44.804;20.476;2023-12-20T14:55:55;119.07;;;61.90;;